Time;durP1;ratioP1;P1;durP2;ratioP2;P2;SDS_P1;SDS_P2;PMS_P1;PMS_P2;Temp;Humidity;BMP_temperature;BMP_pressure;BME280_temperature;BME280_humidity;BME280_pressure;Samples;Min_cycle;Max_cycle;Signal;HPM_P1;HPM_P2
2022/10/29 00:02:23;;;;;;;7.37;5.63;;;14.40;96.40;;;14.66;83.16;98700.50;5040931;28;21018;-75
2022/10/29 00:04:51;;;;;;;7.97;6.13;;;14.30;96.60;;;14.61;83.03;98701.16;5040977;28;21250;-73
2022/10/29 00:07:18;;;;;;;7.97;5.70;;;14.20;97.30;;;14.54;83.78;98697.69;5039291;28;21311;-75
2022/10/29 00:09:47;;;;;;;7.33;5.70;;;14.10;98.50;;;14.42;84.57;98705.78;5036540;28;21142;-75
2022/10/29 00:12:14;;;;;;;11.80;5.87;;;14.00;99.10;;;14.47;84.30;98711.34;5034974;28;20460;-74
2022/10/29 00:14:41;;;;;;;11.13;5.70;;;14.00;99.80;;;14.41;84.57;98710.38;5046790;28;20466;-76
2022/10/29 00:17:08;;;;;;;7.20;6.13;;;14.00;99.90;;;14.49;84.48;98705.72;5035753;28;20956;-75
2022/10/29 00:19:35;;;;;;;13.20;6.47;;;14.10;99.70;;;14.24;84.88;98688.34;5041267;28;20549;-74
2022/10/29 00:22:03;;;;;;;7.23;5.50;;;14.10;99.40;;;14.47;84.58;98708.63;5031031;28;20555;-75
2022/10/29 00:24:30;;;;;;;9.00;6.13;;;14.20;99.10;;;14.41;85.16;98707.66;5037228;28;20471;-77
2022/10/29 00:26:59;;;;;;;6.67;5.70;;;14.10;99.00;;;14.41;84.56;98714.97;5032684;28;20516;-76
2022/10/29 00:29:26;;;;;;;12.60;6.20;;;14.10;98.90;;;14.33;85.41;98717.97;5054952;28;20472;-77
2022/10/29 00:31:53;;;;;;;7.33;5.40;;;13.90;99.70;;;14.23;85.86;98716.56;5045724;28;20524;-74
2022/10/29 00:34:21;;;;;;;8.30;4.97;;;13.80;99.90;;;14.11;85.96;98700.16;5042316;28;20461;-75
2022/10/29 00:36:49;;;;;;;6.37;5.30;;;13.90;99.90;;;14.10;86.34;98698.50;5032384;28;20471;-76
2022/10/29 00:39:17;;;;;;;12.73;5.30;;;13.90;99.90;;;14.23;86.28;98710.31;5032587;28;20971;-77
2022/10/29 00:41:44;;;;;;;6.40;5.20;;;13.90;99.90;;;14.24;86.05;98709.28;5040942;28;20801;-76
2022/10/29 00:44:34;;;;;;;12.23;5.33;;;13.90;99.90;;;14.10;86.30;98700.38;5034863;28;21062;-74
2022/10/29 00:47:12;;;;;;;9.17;5.70;;;13.80;99.90;;;14.11;86.28;98707.50;5049576;28;20523;-74
2022/10/29 00:49:41;;;;;;;6.40;5.80;;;13.90;99.90;;;14.06;86.82;98712.75;5047649;28;21087;-75
2022/10/29 00:52:10;;;;;;;7.50;5.60;;;13.80;99.90;;;13.99;86.83;98713.66;5034357;28;20457;-75
2022/10/29 00:54:41;;;;;;;6.13;5.53;;;13.70;99.90;;;14.01;86.88;98721.56;5055726;28;20460;-76
2022/10/29 00:57:12;;;;;;;7.27;5.37;;;13.60;99.90;;;13.90;86.93;98706.00;5027918;28;20514;-77
2022/10/29 00:59:42;;;;;;;7.17;5.20;;;13.60;99.90;;;14.05;86.46;98711.09;5057251;28;20479;-77
2022/10/29 01:02:10;;;;;;;5.53;5.00;;;13.60;99.90;;;14.03;86.46;98714.06;5059714;28;20789;-77
2022/10/29 01:04:39;;;;;;;8.60;5.37;;;13.70;99.90;;;13.93;86.68;98714.50;5047544;28;20449;-74
2022/10/29 01:07:06;;;;;;;6.87;6.13;;;13.60;99.90;;;13.84;86.68;98715.84;5047300;28;20461;-77
2022/10/29 01:09:34;;;;;;;8.80;5.83;;;13.50;99.90;;;13.77;87.09;98707.75;5054983;28;21355;-77
2022/10/29 01:12:26;;;;;;;6.20;5.60;;;13.40;99.90;;;13.69;87.99;98695.28;5061127;28;20452;-77
2022/10/29 01:15:09;;;;;;;13.73;5.87;;;13.30;99.90;;;13.58;88.84;98696.81;5051037;28;20948;-75
2022/10/29 01:17:53;;;;;;;8.60;6.40;;;13.30;99.90;;;13.57;88.92;98697.88;5057027;28;20455;-75
2022/10/29 01:20:45;;;;;;;8.60;5.63;;;13.40;99.90;;;13.52;89.29;98697.66;5054307;28;20463;-74
2022/10/29 01:23:47;;;;;;;10.37;6.90;;;13.30;99.90;;;13.54;89.31;98698.28;5060699;28;20860;-77
2022/10/29 01:26:41;;;;;;;10.17;6.93;;;13.30;99.90;;;13.48;89.17;98690.16;5047934;28;20488;-75
2022/10/29 01:29:25;;;;;;;8.63;5.80;;;13.30;99.90;;;13.47;90.44;98683.94;5048115;28;20460;-75
2022/10/29 01:32:01;;;;;;;7.33;6.57;;;13.30;99.90;;;13.43;90.57;98672.66;5043710;28;20551;-74
2022/10/29 01:34:39;;;;;;;9.13;6.30;;;13.30;99.90;;;13.46;90.58;98676.84;5049800;28;20493;-75
2022/10/29 01:37:15;;;;;;;8.40;5.90;;;13.30;99.90;;;13.52;90.17;98669.69;5035124;28;20460;-74
2022/10/29 01:39:52;;;;;;;8.90;6.53;;;13.30;99.90;;;13.39;90.74;98670.56;5041648;28;20866;-73
2022/10/29 01:42:28;;;;;;;9.73;6.20;;;13.30;99.90;;;13.41;90.81;98674.72;5032595;28;20498;-73
2022/10/29 01:45:10;;;;;;;8.37;5.40;;;13.30;99.90;;;13.41;90.58;98668.47;5042178;28;20468;-73
2022/10/29 01:47:43;;;;;;;9.10;5.67;;;13.30;99.90;;;13.41;90.52;98674.72;5043314;28;20460;-74
2022/10/29 01:50:15;;;;;;;8.40;7.33;;;13.30;99.90;;;13.34;90.62;98654.13;5053353;28;20457;-74
2022/10/29 01:52:44;;;;;;;7.50;5.47;;;13.30;99.90;;;13.26;91.34;98650.59;5043190;28;20891;-73
2022/10/29 01:55:16;;;;;;;12.73;6.63;;;13.30;99.90;;;12.99;91.45;98607.34;5044419;28;20469;-76
2022/10/29 01:57:43;;;;;;;9.60;6.30;;;13.20;99.90;;;13.41;91.08;98665.75;5050825;28;20452;-75
2022/10/29 02:15:04;;;;;;;9.13;6.90;;;13.10;99.90;;;13.15;91.28;98645.88;5042189;28;20514;-74
2022/10/29 02:17:32;;;;;;;8.40;5.43;;;13.00;99.90;;;13.01;91.02;98626.94;5041551;28;20494;-74
2022/10/29 02:20:04;;;;;;;8.30;6.50;;;13.00;99.90;;;13.24;91.44;98647.25;5046696;28;20480;-73
2022/10/29 02:22:31;;;;;;;7.30;6.03;;;13.00;99.90;;;13.14;91.67;98645.03;5036520;28;20496;-73
2022/10/29 02:24:58;;;;;;;9.07;7.17;;;13.00;99.90;;;13.01;92.34;98642.38;5047460;28;20462;-74
2022/10/29 02:27:26;;;;;;;7.90;6.20;;;12.90;99.90;;;13.07;92.47;98651.53;5046102;28;20458;-72
2022/10/29 02:29:53;;;;;;;8.03;7.23;;;12.90;99.90;;;12.83;92.12;98607.84;5070671;28;20465;-74
2022/10/29 02:32:22;;;;;;;8.73;6.03;;;12.80;99.90;;;12.70;91.84;98577.03;5043569;28;20476;-74
2022/10/29 02:34:49;;;;;;;9.73;6.40;;;12.80;99.90;;;12.99;91.55;98642.63;5046713;28;20477;-74
2022/10/29 02:37:16;;;;;;;8.20;5.93;;;12.80;99.90;;;13.10;92.12;98651.09;5051381;28;20482;-72
2022/10/29 02:39:44;;;;;;;9.07;7.43;;;12.80;99.90;;;13.08;92.44;98653.19;5043430;28;20927;-75
2022/10/29 02:42:11;;;;;;;9.60;7.00;;;12.80;99.90;;;13.08;92.14;98653.19;5039703;28;20525;-75
2022/10/29 02:44:39;;;;;;;14.37;6.70;;;12.80;99.90;;;13.16;92.12;98652.97;5046854;28;20474;-74
2022/10/29 02:47:06;;;;;;;6.73;6.10;;;12.90;99.90;;;13.10;92.08;98642.97;5034606;28;20459;-76
2022/10/29 02:49:35;;;;;;;7.47;6.30;;;12.80;99.90;;;13.10;91.93;98641.09;5049928;28;20523;-74
2022/10/29 02:52:02;;;;;;;8.50;6.50;;;12.90;99.90;;;13.07;92.55;98646.13;5037323;28;20459;-74
2022/10/29 02:54:29;;;;;;;6.63;6.03;;;12.90;99.90;;;13.02;92.48;98642.16;5036050;28;20515;-74
2022/10/29 02:56:56;;;;;;;9.00;6.97;;;12.80;99.90;;;13.00;92.89;98646.13;5038303;28;20453;-76
2022/10/29 02:59:23;;;;;;;7.70;6.77;;;12.90;99.90;;;12.84;92.45;98609.50;5032977;28;20531;-76
2022/10/29 03:01:51;;;;;;;8.90;7.03;;;12.90;99.90;;;13.10;91.84;98645.66;5033269;28;20486;-77
2022/10/29 03:04:18;;;;;;;8.13;6.50;;;12.90;99.90;;;12.97;92.25;98636.56;5034790;28;20988;-77
2022/10/29 03:06:46;;;;;;;9.50;6.43;;;12.90;99.90;;;13.01;92.28;98631.53;5039234;28;20521;-74
2022/10/29 03:09:14;;;;;;;7.70;6.90;;;12.90;99.90;;;12.96;92.27;98637.59;5044433;28;20535;-75
2022/10/29 03:11:41;;;;;;;7.33;6.43;;;12.80;99.90;;;12.91;92.27;98637.41;5037340;28;21019;-73
2022/10/29 03:14:08;;;;;;;7.50;6.73;;;12.80;99.90;;;12.93;92.47;98639.94;5065900;28;20448;-73
2022/10/29 03:16:35;;;;;;;10.90;6.50;;;12.80;99.90;;;12.92;92.24;98638.25;5043332;28;20537;-74
2022/10/29 03:19:03;;;;;;;7.77;6.33;;;12.80;99.90;;;12.89;92.93;98634.09;5040610;28;20475;-74
2022/10/29 03:21:30;;;;;;;8.20;6.80;;;12.80;99.90;;;12.92;92.31;98622.81;5042923;28;20820;-73
2022/10/29 03:23:59;;;;;;;12.03;6.67;;;12.80;99.90;;;12.84;92.49;98625.78;5045550;28;20483;-73
2022/10/29 03:26:26;;;;;;;7.67;6.50;;;12.80;99.90;;;12.91;92.38;98623.88;5032876;28;21074;-74
2022/10/29 03:28:55;;;;;;;9.37;6.87;;;12.80;99.90;;;12.87;92.64;98622.63;5043516;28;20940;-75
2022/10/29 03:31:23;;;;;;;10.57;6.10;;;12.80;99.90;;;12.87;91.64;98615.31;5045823;28;20522;-74
2022/10/29 03:33:50;;;;;;;9.60;6.53;;;12.70;99.90;;;12.92;91.74;98617.38;5052024;28;20506;-75
2022/10/29 03:36:17;;;;;;;8.00;6.97;;;12.70;99.90;;;12.81;91.96;98612.63;5039358;28;20455;-74
2022/10/29 03:38:44;;;;;;;6.90;6.20;;;12.70;99.90;;;12.74;92.85;98616.22;5043422;28;20457;-74
2022/10/29 03:41:13;;;;;;;9.20;6.90;;;12.70;99.90;;;12.81;92.88;98624.31;5039401;28;20458;-74
2022/10/29 03:43:40;;;;;;;7.40;6.70;;;12.60;99.90;;;12.71;92.42;98613.94;5046078;28;20472;-76
2022/10/29 03:46:07;;;;;;;6.90;6.20;;;12.70;99.90;;;12.85;91.99;98622.84;5034592;28;21030;-77
2022/10/29 03:48:35;;;;;;;7.73;6.53;;;12.60;99.90;;;12.83;92.11;98629.53;5057958;28;20456;-75
2022/10/29 03:51:05;;;;;;;9.53;6.90;;;12.60;99.90;;;12.81;91.99;98626.19;5063083;28;20523;-74
2022/10/29 03:53:34;;;;;;;7.83;5.80;;;12.60;99.90;;;12.74;92.13;98637.91;5049820;28;20447;-74
2022/10/29 03:56:02;;;;;;;7.77;6.27;;;12.60;99.90;;;12.27;92.38;98573.00;5067854;28;20813;-75
2022/10/29 03:58:30;;;;;;;7.07;6.37;;;12.50;99.90;;;12.45;91.69;98590.50;5062606;28;20469;-75
2022/10/29 04:01:00;;;;;;;12.73;7.20;;;12.50;99.90;;;12.69;91.33;98629.59;5050129;28;20865;-72
2022/10/29 04:03:29;;;;;;;6.97;6.23;;;12.50;99.90;;;12.75;90.41;98638.75;5043559;28;20605;-75
2022/10/29 04:05:58;;;;;;;11.07;6.73;;;12.40;99.90;;;12.68;90.57;98641.50;5060536;28;21001;-75
2022/10/29 04:08:26;;;;;;;11.40;7.30;;;12.40;99.90;;;12.26;90.73;98587.59;5063141;28;20571;-75
2022/10/29 04:10:54;;;;;;;6.83;6.20;;;12.40;99.90;;;12.59;90.98;98650.88;5049699;28;20956;-74
2022/10/29 04:13:21;;;;;;;7.63;6.00;;;12.20;99.90;;;12.54;91.10;98664.25;5054327;28;20938;-75
2022/10/29 04:15:54;;;;;;;7.17;6.20;;;12.20;99.90;;;12.47;91.27;98659.66;5066588;28;20910;-74
2022/10/29 04:18:21;;;;;;;9.80;7.17;;;12.10;99.90;;;12.47;91.36;98659.66;5036722;28;20975;-73
2022/10/29 04:20:48;;;;;;;8.23;6.60;;;12.10;99.90;;;12.42;91.11;98664.91;5043106;28;20488;-74
2022/10/29 04:23:16;;;;;;;9.60;6.47;;;12.10;99.90;;;12.44;91.12;98675.53;5036533;28;20963;-74
2022/10/29 04:25:43;;;;;;;7.73;6.83;;;12.00;99.90;;;12.37;90.91;98674.69;5034517;28;20468;-72
2022/10/29 04:28:10;;;;;;;8.80;7.90;;;12.00;99.90;;;12.24;92.01;98681.81;5039867;28;20553;-73
2022/10/29 04:30:37;;;;;;;8.53;7.23;;;11.90;99.90;;;12.31;92.24;98679.09;5039908;28;20456;-75
2022/10/29 04:33:06;;;;;;;11.00;7.90;;;11.90;99.90;;;12.40;91.63;98677.84;5037085;28;20461;-73
2022/10/29 04:35:33;;;;;;;12.33;7.70;;;12.00;99.90;;;12.39;91.31;98683.44;5037497;28;20945;-73
2022/10/29 04:38:07;;;;;;;9.03;7.03;;;12.00;99.90;;;12.32;91.45;98672.63;5040674;28;21002;-74
2022/10/29 04:40:34;;;;;;;10.13;8.20;;;12.00;99.90;;;12.14;92.29;98678.72;5040885;28;20498;-75
2022/10/29 04:43:02;;;;;;;8.90;8.00;;;11.90;99.90;;;12.02;93.00;98678.47;5051130;28;20479;-73
2022/10/29 04:45:29;;;;;;;10.53;6.80;;;11.70;99.90;;;12.10;92.76;98669.31;5036559;28;20923;-74
2022/10/29 04:47:59;;;;;;;12.47;8.30;;;11.70;99.90;;;12.15;92.45;98673.06;5042049;28;20975;-74
2022/10/29 04:50:29;;;;;;;12.23;7.67;;;11.80;99.90;;;12.03;92.95;98674.72;5045253;28;20465;-74
2022/10/29 04:52:58;;;;;;;10.90;7.10;;;11.70;99.90;;;11.97;93.49;98680.97;5055339;28;20508;-75
2022/10/29 04:55:26;;;;;;;10.63;8.23;;;11.60;99.90;;;11.92;94.12;98683.47;5042215;28;20742;-75
2022/10/29 04:57:54;;;;;;;13.83;8.10;;;11.60;99.90;;;11.75;94.77;98664.91;5046186;28;20470;-73
2022/10/29 05:00:22;;;;;;;10.23;7.73;;;11.50;99.90;;;11.90;94.75;98672.84;5054565;28;20470;-75
2022/10/29 05:02:50;;;;;;;13.67;7.83;;;11.60;99.90;;;12.00;94.07;98664.28;5044819;28;21065;-74
2022/10/29 05:05:20;;;;;;;9.30;7.70;;;11.70;99.90;;;12.07;93.28;98670.59;5046172;28;20469;-73
2022/10/29 05:07:49;;;;;;;9.27;7.67;;;11.70;99.90;;;11.96;93.54;98669.28;5055715;28;20459;-73
2022/10/29 05:10:16;;;;;;;10.70;8.83;;;11.70;99.90;;;12.04;93.67;98661.00;5059233;28;20518;-73
2022/10/29 05:12:43;;;;;;;9.23;7.57;;;11.70;99.90;;;11.69;93.07;98600.78;5040744;28;20589;-75
2022/10/29 05:15:11;;;;;;;8.47;7.50;;;11.70;99.90;;;12.11;93.45;98660.13;5058306;28;20952;-75
2022/10/29 05:17:39;;;;;;;9.70;7.43;;;11.70;99.90;;;12.15;93.31;98666.81;5066591;28;20477;-73
2022/10/29 05:20:07;;;;;;;11.87;8.10;;;11.80;99.90;;;12.14;93.18;98665.16;5060263;28;20469;-75
2022/10/29 05:22:34;;;;;;;10.63;7.90;;;11.80;99.90;;;12.24;92.75;98660.13;5043708;28;20468;-74
2022/10/29 05:25:03;;;;;;;9.37;7.57;;;11.80;99.90;;;12.29;92.38;98656.78;5056894;28;20459;-74
2022/10/29 05:27:31;;;;;;;11.83;10.13;;;11.90;99.90;;;12.23;92.53;98661.19;5027211;28;20855;-74
2022/10/29 05:29:58;;;;;;;12.10;7.50;;;11.90;99.90;;;12.27;92.53;98656.19;5050853;28;20464;-75
2022/10/29 05:32:25;;;;;;;8.70;7.50;;;11.90;99.90;;;12.29;91.71;98652.22;5041347;28;20505;-73
2022/10/29 05:34:52;;;;;;;8.70;7.80;;;12.00;99.90;;;12.27;91.64;98659.69;5050616;28;20489;-75
2022/10/29 05:37:19;;;;;;;8.67;7.50;;;12.00;99.90;;;12.25;92.36;98660.97;5051700;28;20463;-74
2022/10/29 05:39:47;;;;;;;7.60;6.63;;;12.00;99.90;;;12.28;92.06;98657.84;5065916;28;20547;-74
2022/10/29 05:42:15;;;;;;;9.37;7.23;;;12.00;99.90;;;12.23;91.76;98668.50;5053348;28;20953;-74
2022/10/29 05:44:42;;;;;;;12.80;7.60;;;12.00;99.90;;;12.33;91.05;98668.88;5040451;28;21074;-74
2022/10/29 05:47:09;;;;;;;8.40;6.90;;;12.10;99.90;;;12.24;91.31;98664.72;5056093;28;20448;-73
2022/10/29 05:49:37;;;;;;;12.90;7.50;;;12.10;99.90;;;12.21;91.81;98670.53;5052051;28;20509;-76
2022/10/29 05:52:04;;;;;;;11.10;8.20;;;12.10;99.90;;;12.16;91.67;98653.06;5040642;28;20450;-77
2022/10/29 05:54:32;;;;;;;14.93;8.73;;;12.10;99.90;;;12.26;91.15;98678.91;5051898;28;20464;-73
2022/10/29 05:56:59;;;;;;;10.93;7.60;;;12.20;99.90;;;12.23;91.00;98674.72;5055532;28;20602;-75
2022/10/29 05:59:27;;;;;;;8.30;7.50;;;12.20;99.90;;;12.33;90.43;98671.56;5054519;28;20511;-74
2022/10/29 06:01:55;;;;;;;8.23;7.53;;;12.20;99.90;;;12.44;89.83;98686.38;5038083;28;20467;-78
2022/10/29 06:04:22;;;;;;;8.47;7.57;;;12.30;99.90;;;12.31;89.89;98682.63;5042281;28;21125;-78
2022/10/29 06:06:49;;;;;;;12.83;7.27;;;12.30;99.90;;;12.45;89.59;98693.47;5035817;28;20477;-79
2022/10/29 06:09:16;;;;;;;8.70;7.00;;;12.30;99.90;;;12.47;89.08;98686.78;5053563;28;20541;-79
2022/10/29 06:11:44;;;;;;;8.63;6.80;;;12.30;99.90;;;12.51;89.10;98694.47;5038732;28;20476;-78
2022/10/29 06:14:11;;;;;;;12.20;7.63;;;12.30;99.90;;;12.39;88.97;98678.03;5044338;28;20542;-77
2022/10/29 06:16:41;;;;;;;9.90;6.77;;;12.30;99.90;;;12.43;89.28;98701.78;5046049;28;20460;-74
2022/10/29 06:19:08;;;;;;;10.13;7.70;;;12.30;99.90;;;12.52;88.94;98696.16;5065795;28;20535;-73
2022/10/29 06:21:36;;;;;;;9.13;7.40;;;12.30;99.90;;;12.54;88.74;98688.66;5041958;28;20513;-72
2022/10/29 06:24:04;;;;;;;12.40;7.40;;;12.40;99.90;;;12.54;88.92;98684.03;5034947;28;20474;-72
2022/10/29 06:26:31;;;;;;;9.37;6.83;;;12.40;99.90;;;12.58;88.50;98687.19;5057068;28;20793;-71
2022/10/29 06:28:58;;;;;;;13.67;7.37;;;12.40;99.90;;;12.53;88.85;98679.69;5029950;28;20577;-72
2022/10/29 06:31:25;;;;;;;7.83;7.13;;;12.40;99.90;;;12.55;89.14;98693.84;5032926;28;20530;-74
2022/10/29 06:33:55;;;;;;;10.57;7.40;;;12.50;99.90;;;12.56;88.78;98678.44;5052874;28;20478;-73
2022/10/29 06:36:22;;;;;;;8.17;7.40;;;12.50;99.90;;;12.56;89.10;98678.44;5062422;28;20540;-73
2022/10/29 06:38:49;;;;;;;10.57;6.80;;;12.50;99.90;;;12.68;88.74;98684.00;5045198;28;20513;-76
2022/10/29 06:41:17;;;;;;;8.07;7.27;;;12.50;99.90;;;12.61;88.48;98662.34;5048717;28;21055;-71
2022/10/29 06:43:44;;;;;;;7.37;6.40;;;12.60;99.90;;;12.80;87.79;98674.19;5053589;28;20731;-70
2022/10/29 06:46:11;;;;;;;15.43;6.97;;;12.70;99.90;;;12.83;88.17;98678.34;5050158;28;20480;-70
2022/10/29 06:48:38;;;;;;;9.90;6.70;;;12.70;99.90;;;13.00;87.25;98684.97;5047320;28;20531;-70
2022/10/29 06:51:07;;;;;;;8.50;6.47;;;12.80;99.90;;;13.14;86.95;98693.03;5057738;28;20473;-69
2022/10/29 06:53:34;;;;;;;7.10;6.07;;;12.90;99.90;;;13.08;86.45;98692.03;5050335;28;20933;-68
2022/10/29 06:56:01;;;;;;;8.17;6.80;;;12.90;99.10;;;12.68;87.50;98644.19;5040785;28;20452;-69
2022/10/29 06:58:29;;;;;;;9.13;6.30;;;12.90;99.30;;;12.86;87.77;98677.91;5048979;28;20522;-69
2022/10/29 07:00:56;;;;;;;8.93;6.50;;;12.90;99.20;;;12.91;87.41;98675.38;5055448;28;20548;-69
2022/10/29 07:03:23;;;;;;;7.80;6.53;;;12.90;99.10;;;12.99;87.23;98683.31;5057336;28;20511;-69
2022/10/29 07:05:56;;;;;;;9.17;6.63;;;13.00;99.10;;;12.98;87.25;98670.78;5056903;28;20467;-69
2022/10/29 07:08:25;;;;;;;11.93;7.40;;;13.00;99.10;;;13.02;87.40;98682.84;5036639;28;20464;-68
2022/10/29 07:10:53;;;;;;;12.30;6.70;;;13.00;99.50;;;13.28;86.52;98675.66;5030542;28;20563;-66
2022/10/29 07:13:20;;;;;;;7.37;6.60;;;13.00;99.50;;;13.36;86.29;98676.44;5045824;28;20454;-68
2022/10/29 07:15:48;;;;;;;7.50;6.43;;;13.10;98.90;;;13.27;86.67;98678.56;5060150;28;20540;-68
2022/10/29 07:18:15;;;;;;;9.20;7.27;;;13.20;98.70;;;13.44;85.48;98682.47;5052960;28;20472;-68
2022/10/29 07:20:44;;;;;;;10.97;6.80;;;13.30;98.00;;;13.42;86.08;98675.56;5052872;28;20476;-67
2022/10/29 07:23:13;;;;;;;10.07;6.87;;;13.30;98.20;;;13.62;85.18;98680.06;5044675;28;20467;-68
2022/10/29 07:25:42;;;;;;;9.93;6.60;;;13.40;98.00;;;13.62;85.42;98680.88;5049461;28;20480;-71
2022/10/29 07:28:13;;;;;;;8.87;7.00;;;13.40;97.80;;;13.68;85.27;98671.03;5050809;28;20543;-67
2022/10/29 07:30:41;;;;;;;7.03;5.93;;;13.50;97.20;;;13.79;84.70;98667.63;5058646;28;20538;-67
2022/10/29 07:33:08;;;;;;;8.93;6.53;;;13.60;96.80;;;13.79;84.23;98681.19;5055128;28;20453;-66
2022/10/29 07:35:35;;;;;;;13.10;6.73;;;13.60;96.10;;;13.75;85.05;98669.13;5046051;28;21025;-67
2022/10/29 07:38:05;;;;;;;11.37;6.90;;;13.60;96.80;;;13.95;84.27;98679.84;5048828;28;20459;-68
2022/10/29 07:40:32;;;;;;;9.40;5.93;;;13.80;96.30;;;14.17;83.23;98682.97;5050807;28;20474;-71
2022/10/29 07:43:01;;;;;;;7.63;5.90;;;13.90;95.60;;;14.21;83.00;98682.53;5046314;28;20457;-68
2022/10/29 07:45:29;;;;;;;9.87;6.20;;;14.10;95.10;;;14.27;82.84;98684.34;5039852;28;20468;-68
2022/10/29 07:48:00;;;;;;;10.23;5.63;;;14.20;94.90;;;14.38;82.84;98674.63;5047234;28;20978;-79
2022/10/29 07:50:28;;;;;;;16.63;7.03;;;14.20;95.10;;;14.67;81.13;98686.69;5033084;28;20466;-68
2022/10/29 07:52:55;;;;;;;8.70;6.20;;;14.30;94.60;;;14.69;81.16;98687.28;5031202;28;20944;-70
2022/10/29 07:55:22;;;;;;;10.27;6.17;;;14.40;94.00;;;14.73;79.99;98668.66;5032749;28;20535;-69
2022/10/29 07:57:57;;;;;;;8.57;6.53;;;14.60;93.20;;;14.69;80.54;98691.88;5036744;28;20479;-68
2022/10/29 08:00:26;;;;;;;8.77;6.40;;;14.60;92.80;;;14.94;79.53;98680.13;5039919;28;20565;-70
2022/10/29 08:02:54;;;;;;;8.50;6.30;;;14.70;92.90;;;14.80;79.75;98684.91;5042161;28;20995;-68
2022/10/29 08:05:22;;;;;;;11.83;6.73;;;14.70;92.60;;;14.78;79.60;98673.41;5036769;28;20964;-70
2022/10/29 08:07:49;;;;;;;10.10;7.33;;;14.70;92.60;;;14.90;79.35;98673.50;5033769;28;20481;-69
2022/10/29 08:10:17;;;;;;;8.33;6.67;;;14.80;92.30;;;14.96;79.08;98678.84;5043954;28;20465;-68
2022/10/29 08:12:50;;;;;;;10.47;6.63;;;14.80;92.20;;;14.87;79.02;98670.19;5035807;28;20527;-68
2022/10/29 08:15:18;;;;;;;8.73;6.30;;;14.80;92.00;;;15.26;77.51;98672.63;5035927;28;20450;-68
2022/10/29 08:17:47;;;;;;;10.03;6.43;;;15.00;91.80;;;15.37;77.47;98672.88;5030296;28;20464;-68
2022/10/29 08:20:15;;;;;;;8.63;6.33;;;15.10;91.60;;;15.51;76.52;98679.78;5036175;28;20872;-69
2022/10/29 08:22:42;;;;;;;16.83;6.87;;;15.20;91.40;;;15.36;76.63;98679.38;5043635;28;20958;-68
2022/10/29 08:25:10;;;;;;;11.80;7.00;;;15.20;91.00;;;15.66;75.67;98681.25;5036325;28;20453;-68
2022/10/29 08:27:37;;;;;;;10.13;6.23;;;15.40;90.90;;;15.73;75.74;98687.47;5052026;28;21127;-69
2022/10/29 08:30:05;;;;;;;8.63;6.60;;;15.50;90.70;;;15.75;74.74;98668.97;5051460;28;21024;-68
2022/10/29 08:32:33;;;;;;;10.87;6.50;;;15.60;90.40;;;15.90;74.58;98681.38;5040864;28;20473;-68
2022/10/29 08:35:04;;;;;;;8.23;6.77;;;15.70;90.30;;;16.21;73.44;98679.38;5032586;28;20519;-70
2022/10/29 08:37:31;;;;;;;8.10;5.80;;;15.80;90.10;;;15.84;73.38;98636.78;5040797;28;20465;-69
2022/10/29 08:39:58;;;;;;;17.90;7.20;;;15.80;89.90;;;16.07;73.76;98676.88;5035225;28;20472;-69
2022/10/29 08:42:39;;;;;;;10.90;7.40;;;15.90;89.90;;;15.94;73.92;98672.50;5039449;28;20543;-69
2022/10/29 08:45:23;;;;;;;9.53;6.90;;;15.90;89.60;;;16.37;72.87;98675.94;5029867;28;20511;-69
2022/10/29 08:48:27;;;;;;;13.67;7.30;;;16.00;89.80;;;16.49;72.22;98683.31;5032446;28;20512;-68
2022/10/29 08:51:01;;;;;;;11.73;7.97;;;16.10;89.20;;;16.69;71.25;98675.56;5029617;28;20482;-70
2022/10/29 08:53:37;;;;;;;16.33;7.57;;;16.30;88.80;;;16.67;70.70;98688.63;5031046;28;20453;-68
2022/10/29 08:56:12;;;;;;;19.57;7.40;;;16.40;88.30;;;16.96;70.04;98683.22;5039181;28;21128;-68
2022/10/29 08:58:52;;;;;;;8.73;6.20;;;16.60;88.20;;;17.35;69.33;98685.41;5031692;28;20503;-67
2022/10/29 09:01:21;;;;;;;11.50;6.67;;;16.80;88.00;;;17.43;68.63;98686.91;5029855;28;22762;-68
2022/10/29 09:03:50;;;;;;;9.27;6.87;;;17.00;87.40;;;17.68;68.02;98685.72;5048937;28;20462;-69
2022/10/29 09:06:27;;;;;;;11.80;6.97;;;17.20;87.30;;;17.42;68.52;98685.25;5034011;28;21027;-68
2022/10/29 09:09:11;;;;;;;18.10;7.33;;;17.20;87.00;;;17.68;67.92;98686.53;5032979;28;20459;-68
2022/10/29 09:11:54;;;;;;;8.10;7.00;;;17.30;86.90;;;18.01;66.95;98692.31;5039148;28;20911;-67
2022/10/29 09:14:48;;;;;;;9.93;7.37;;;17.50;86.70;;;17.99;67.17;98694.47;5028994;28;20510;-69
2022/10/29 09:17:26;;;;;;;14.13;6.60;;;17.60;86.40;;;17.99;66.79;98689.00;5029856;28;20463;-68
2022/10/29 09:20:15;;;;;;;11.57;7.13;;;17.60;86.00;;;18.14;66.70;98687.63;5032927;28;20544;-69
2022/10/29 09:22:54;;;;;;;11.93;6.57;;;17.70;86.00;;;17.93;67.55;98689.97;5034879;28;21498;-67
2022/10/29 09:25:27;;;;;;;11.33;6.50;;;17.70;86.10;;;18.03;67.18;98684.72;5043430;28;20460;-68
2022/10/29 09:28:11;;;;;;;10.40;7.47;;;17.70;86.10;;;17.97;67.59;98682.94;5033299;28;20465;-69
2022/10/29 09:30:43;;;;;;;11.97;7.43;;;17.60;86.30;;;18.15;66.75;98681.06;5025665;28;20548;-67
2022/10/29 09:33:15;;;;;;;8.87;7.40;;;17.90;86.20;;;17.94;67.76;98678.78;5027945;28;20537;-69
2022/10/29 09:35:47;;;;;;;12.87;7.27;;;17.80;86.10;;;18.06;67.48;98662.34;5036072;28;20518;-69
2022/10/29 09:38:19;;;;;;;11.97;6.47;;;17.80;86.20;;;18.45;66.02;98675.22;5030020;28;20498;-69
2022/10/29 09:40:47;;;;;;;13.83;8.30;;;18.10;85.60;;;18.64;65.24;98683.13;5041597;28;20480;-69
2022/10/29 09:43:27;;;;;;;12.43;7.70;;;18.30;85.30;;;18.47;65.30;98672.25;5037867;28;20794;-69
2022/10/29 09:46:01;;;;;;;9.37;6.93;;;18.40;85.10;;;18.77;65.11;98676.50;5039300;28;20488;-70
2022/10/29 09:48:35;;;;;;;10.20;7.00;;;18.50;84.90;;;18.97;64.34;98660.31;5046715;28;20920;-68
2022/10/29 09:51:13;;;;;;;15.40;7.97;;;18.70;84.60;;;19.33;63.55;98661.84;5037304;28;20446;-68
2022/10/29 09:53:43;;;;;;;10.70;6.60;;;19.00;84.40;;;19.36;62.82;98653.13;5036154;28;20829;-69
2022/10/29 09:56:11;;;;;;;7.67;6.60;;;19.30;83.90;;;20.27;60.77;98656.16;5038422;28;20442;-67
2022/10/29 09:58:44;;;;;;;11.00;6.57;;;19.60;83.60;;;20.87;58.93;98652.38;5042387;28;20481;-68
2022/10/29 10:01:12;;;;;;;14.13;6.90;;;20.10;83.00;;;21.07;57.97;98654.38;5043387;28;20479;-70
2022/10/29 10:03:45;;;;;;;10.03;6.10;;;20.40;82.30;;;20.89;58.25;98651.03;5038069;28;20965;-70
2022/10/29 10:06:14;;;;;;;11.80;6.33;;;20.50;81.60;;;20.53;59.07;98642.56;5028868;28;20566;-68
2022/10/29 10:11:39;;;;;;;10.43;6.03;;;20.40;81.30;;;20.20;59.77;98648.13;5077441;27;20725;-71
2022/10/29 10:14:20;;;;;;;7.90;6.13;;;20.20;81.20;;;20.19;60.21;98649.22;5075635;28;20827;-68
2022/10/29 10:16:57;;;;;;;9.70;6.40;;;20.00;81.60;;;20.30;59.89;98652.88;5075316;28;20458;-70
2022/10/29 10:19:26;;;;;;;6.73;5.67;;;20.00;81.60;;;20.16;60.39;98641.50;5077850;28;20512;-72
2022/10/29 10:21:59;;;;;;;8.63;5.23;;;19.90;81.50;;;20.59;59.88;98643.41;5075817;28;20463;-69
2022/10/29 10:24:33;;;;;;;13.13;7.07;;;20.00;81.90;;;20.59;59.85;98644.25;5064082;28;20465;-69
2022/10/29 10:27:24;;;;;;;10.07;6.23;;;20.10;81.70;;;20.54;59.27;98627.75;5074398;28;20566;-68
2022/10/29 10:30:16;;;;;;;9.83;6.47;;;20.20;81.10;;;20.97;58.50;98626.88;5079673;28;20478;-70
2022/10/29 10:32:43;;;;;;;11.30;6.00;;;20.40;81.40;;;21.15;57.87;98623.63;5077731;28;20455;-70
2022/10/29 10:35:30;;;;;;;15.97;6.63;;;20.60;80.90;;;21.16;57.76;98614.31;5072225;28;20470;-71
2022/10/29 10:37:58;;;;;;;11.60;6.13;;;20.70;80.70;;;21.22;57.82;98623.38;5074094;28;20497;-68
2022/10/29 10:40:26;;;;;;;11.67;6.20;;;20.80;80.50;;;21.21;57.94;98621.72;5068869;28;21451;-69
2022/10/29 10:42:55;;;;;;;21.10;6.77;;;20.80;80.40;;;21.57;57.13;98623.72;5079080;28;20516;-69
2022/10/29 10:45:33;;;;;;;12.13;6.00;;;21.00;80.30;;;21.55;57.64;98615.75;5068797;28;20462;-77
2022/10/29 10:48:01;;;;;;;11.20;6.30;;;21.10;80.30;;;21.77;56.50;98614.69;5075661;28;20457;-69
2022/10/29 10:50:30;;;;;;;12.03;6.73;;;21.30;80.00;;;22.01;56.03;98612.19;5081985;28;20477;-69